sensor_id;sensor_type;location;lat;lon;timestamp;P1;durP1;ratioP1;P2;durP2;ratioP2
18820;SDS011;9539;59.332;18.034;2022-10-26T00:02:04;1.75;;;1.65;;
18820;SDS011;9539;59.332;18.034;2022-10-26T00:04:31;2.13;;;1.67;;
18820;SDS011;9539;59.332;18.034;2022-10-26T00:06:58;1.88;;;1.70;;
18820;SDS011;9539;59.332;18.034;2022-10-26T00:09:24;1.70;;;1.60;;
18820;SDS011;9539;59.332;18.034;2022-10-26T00:11:51;2.10;;;1.55;;
18820;SDS011;9539;59.332;18.034;2022-10-26T00:14:18;1.40;;;1.30;;
18820;SDS011;9539;59.332;18.034;2022-10-26T00:16:45;1.90;;;1.40;;
18820;SDS011;9539;59.332;18.034;2022-10-26T00:19:13;2.28;;;1.63;;
18820;SDS011;9539;59.332;18.034;2022-10-26T00:21:40;1.85;;;1.30;;
18820;SDS011;9539;59.332;18.034;2022-10-26T00:24:07;1.88;;;1.65;;
18820;SDS011;9539;59.332;18.034;2022-10-26T00:26:33;1.70;;;1.60;;
18820;SDS011;9539;59.332;18.034;2022-10-26T00:29:00;1.63;;;1.52;;
18820;SDS011;9539;59.332;18.034;2022-10-26T00:31:27;2.13;;;1.40;;
18820;SDS011;9539;59.332;18.034;2022-10-26T00:33:54;1.48;;;1.38;;
18820;SDS011;9539;59.332;18.034;2022-10-26T00:36:23;1.50;;;1.40;;
18820;SDS011;9539;59.332;18.034;2022-10-26T00:38:52;1.55;;;1.45;;
18820;SDS011;9539;59.332;18.034;2022-10-26T00:41:20;2.78;;;1.55;;
18820;SDS011;9539;59.332;18.034;2022-10-26T00:43:48;1.42;;;1.30;;
18820;SDS011;9539;59.332;18.034;2022-10-26T00:46:17;1.50;;;1.40;;
18820;SDS011;9539;59.332;18.034;2022-10-26T00:48:48;1.20;;;1.20;;
18820;SDS011;9539;59.332;18.034;2022-10-26T00:51:19;2.03;;;1.20;;
18820;SDS011;9539;59.332;18.034;2022-10-26T00:53:53;1.05;;;1.05;;
18820;SDS011;9539;59.332;18.034;2022-10-26T00:56:21;1.17;;;1.10;;
18820;SDS011;9539;59.332;18.034;2022-10-26T00:58:48;2.22;;;1.20;;
18820;SDS011;9539;59.332;18.034;2022-10-26T01:01:15;1.38;;;1.27;;
18820;SDS011;9539;59.332;18.034;2022-10-26T01:03:42;1.20;;;1.10;;
18820;SDS011;9539;59.332;18.034;2022-10-26T01:06:10;1.88;;;1.40;;
18820;SDS011;9539;59.332;18.034;2022-10-26T01:08:40;1.00;;;1.00;;
18820;SDS011;9539;59.332;18.034;2022-10-26T01:11:08;1.23;;;1.13;;
18820;SDS011;9539;59.332;18.034;2022-10-26T01:13:36;1.13;;;1.10;;
18820;SDS011;9539;59.332;18.034;2022-10-26T01:16:06;1.48;;;1.38;;
18820;SDS011;9539;59.332;18.034;2022-10-26T01:18:46;1.90;;;1.70;;
18820;SDS011;9539;59.332;18.034;2022-10-26T01:24:17;1.83;;;1.70;;
18820;SDS011;9539;59.332;18.034;2022-10-26T01:26:51;2.42;;;1.60;;
18820;SDS011;9539;59.332;18.034;2022-10-26T01:32:54;1.67;;;1.58;;
18820;SDS011;9539;59.332;18.034;2022-10-26T01:35:35;1.70;;;1.60;;
18820;SDS011;9539;59.332;18.034;2022-10-26T01:38:08;1.40;;;1.30;;
18820;SDS011;9539;59.332;18.034;2022-10-26T01:40:41;1.77;;;1.67;;
18820;SDS011;9539;59.332;18.034;2022-10-26T01:43:12;3.38;;;2.10;;
18820;SDS011;9539;59.332;18.034;2022-10-26T01:45:42;1.60;;;1.50;;
18820;SDS011;9539;59.332;18.034;2022-10-26T01:48:13;1.70;;;1.60;;
18820;SDS011;9539;59.332;18.034;2022-10-26T01:50:44;2.83;;;1.85;;
18820;SDS011;9539;59.332;18.034;2022-10-26T01:53:15;1.88;;;1.75;;
18820;SDS011;9539;59.332;18.034;2022-10-26T01:55:44;3.03;;;1.52;;
18820;SDS011;9539;59.332;18.034;2022-10-26T02:01:32;1.60;;;1.50;;
18820;SDS011;9539;59.332;18.034;2022-10-26T02:04:14;3.45;;;1.52;;
18820;SDS011;9539;59.332;18.034;2022-10-26T02:06:51;1.70;;;1.60;;
18820;SDS011;9539;59.332;18.034;2022-10-26T02:09:28;1.48;;;1.38;;
18820;SDS011;9539;59.332;18.034;2022-10-26T02:12:04;1.40;;;1.30;;
18820;SDS011;9539;59.332;18.034;2022-10-26T02:14:38;1.40;;;1.30;;
18820;SDS011;9539;59.332;18.034;2022-10-26T02:17:16;1.88;;;1.02;;
18820;SDS011;9539;59.332;18.034;2022-10-26T02:19:53;0.90;;;0.90;;
18820;SDS011;9539;59.332;18.034;2022-10-26T02:22:25;1.13;;;1.02;;
18820;SDS011;9539;59.332;18.034;2022-10-26T02:24:58;1.42;;;1.00;;
18820;SDS011;9539;59.332;18.034;2022-10-26T02:27:31;0.90;;;0.90;;
18820;SDS011;9539;59.332;18.034;2022-10-26T02:30:00;1.00;;;0.90;;
18820;SDS011;9539;59.332;18.034;2022-10-26T02:32:29;0.80;;;0.80;;
18820;SDS011;9539;59.332;18.034;2022-10-26T02:35:02;1.35;;;0.93;;
18820;SDS011;9539;59.332;18.034;2022-10-26T02:37:30;0.88;;;0.88;;
18820;SDS011;9539;59.332;18.034;2022-10-26T02:40:00;1.13;;;0.82;;
18820;SDS011;9539;59.332;18.034;2022-10-26T02:42:29;0.90;;;0.80;;
18820;SDS011;9539;59.332;18.034;2022-10-26T02:44:58;0.98;;;0.98;;
18820;SDS011;9539;59.332;18.034;2022-10-26T02:47:28;0.90;;;0.90;;
18820;SDS011;9539;59.332;18.034;2022-10-26T02:49:55;0.80;;;0.80;;
18820;SDS011;9539;59.332;18.034;2022-10-26T02:52:25;0.75;;;0.75;;
18820;SDS011;9539;59.332;18.034;2022-10-26T02:54:59;1.77;;;0.80;;
18820;SDS011;9539;59.332;18.034;2022-10-26T02:57:31;0.70;;;0.70;;
18820;SDS011;9539;59.332;18.034;2022-10-26T03:00:04;0.80;;;0.80;;
18820;SDS011;9539;59.332;18.034;2022-10-26T03:02:31;0.80;;;0.80;;
18820;SDS011;9539;59.332;18.034;2022-10-26T03:05:03;0.80;;;0.80;;
18820;SDS011;9539;59.332;18.034;2022-10-26T03:07:35;1.10;;;0.77;;
18820;SDS011;9539;59.332;18.034;2022-10-26T03:10:02;1.50;;;1.00;;
18820;SDS011;9539;59.332;18.034;2022-10-26T03:12:29;2.83;;;1.00;;
18820;SDS011;9539;59.332;18.034;2022-10-26T03:14:56;1.00;;;1.00;;
18820;SDS011;9539;59.332;18.034;2022-10-26T03:17:23;0.80;;;0.80;;
18820;SDS011;9539;59.332;18.034;2022-10-26T03:19:50;0.90;;;0.90;;
18820;SDS011;9539;59.332;18.034;2022-10-26T03:22:17;0.80;;;0.80;;
18820;SDS011;9539;59.332;18.034;2022-10-26T03:24:45;0.80;;;0.80;;
18820;SDS011;9539;59.332;18.034;2022-10-26T03:27:11;0.77;;;0.77;;
18820;SDS011;9539;59.332;18.034;2022-10-26T03:29:38;0.80;;;0.80;;
18820;SDS011;9539;59.332;18.034;2022-10-26T03:32:05;1.42;;;0.90;;
18820;SDS011;9539;59.332;18.034;2022-10-26T03:34:33;1.00;;;0.88;;
18820;SDS011;9539;59.332;18.034;2022-10-26T03:36:59;0.95;;;0.95;;
18820;SDS011;9539;59.332;18.034;2022-10-26T03:39:26;1.08;;;1.00;;
18820;SDS011;9539;59.332;18.034;2022-10-26T03:41:54;0.95;;;0.95;;
18820;SDS011;9539;59.332;18.034;2022-10-26T03:44:21;0.90;;;0.90;;
18820;SDS011;9539;59.332;18.034;2022-10-26T03:46:48;0.80;;;0.80;;
18820;SDS011;9539;59.332;18.034;2022-10-26T03:49:15;1.55;;;0.80;;
18820;SDS011;9539;59.332;18.034;2022-10-26T03:51:42;0.90;;;0.90;;
18820;SDS011;9539;59.332;18.034;2022-10-26T03:54:08;1.75;;;1.08;;
18820;SDS011;9539;59.332;18.034;2022-10-26T03:56:35;2.20;;;1.00;;
18820;SDS011;9539;59.332;18.034;2022-10-26T03:59:03;1.20;;;1.10;;
18820;SDS011;9539;59.332;18.034;2022-10-26T04:01:30;1.20;;;0.98;;
18820;SDS011;9539;59.332;18.034;2022-10-26T04:03:57;2.28;;;1.00;;
18820;SDS011;9539;59.332;18.034;2022-10-26T04:06:24;1.90;;;1.10;;
18820;SDS011;9539;59.332;18.034;2022-10-26T04:08:50;2.17;;;1.33;;
18820;SDS011;9539;59.332;18.034;2022-10-26T04:11:22;1.40;;;1.30;;
18820;SDS011;9539;59.332;18.034;2022-10-26T04:13:49;1.35;;;1.13;;
18820;SDS011;9539;59.332;18.034;2022-10-26T04:16:17;2.55;;;1.20;;
18820;SDS011;9539;59.332;18.034;2022-10-26T04:18:43;1.25;;;1.10;;
18820;SDS011;9539;59.332;18.034;2022-10-26T04:21:11;1.50;;;1.10;;
18820;SDS011;9539;59.332;18.034;2022-10-26T04:23:37;3.20;;;1.02;;
18820;SDS011;9539;59.332;18.034;2022-10-26T04:26:04;1.30;;;1.20;;
18820;SDS011;9539;59.332;18.034;2022-10-26T04:28:31;1.40;;;1.10;;
18820;SDS011;9539;59.332;18.034;2022-10-26T04:30:58;1.33;;;1.00;;
18820;SDS011;9539;59.332;18.034;2022-10-26T04:33:26;1.05;;;1.05;;
18820;SDS011;9539;59.332;18.034;2022-10-26T04:35:57;1.00;;;1.00;;
18820;SDS011;9539;59.332;18.034;2022-10-26T04:38:24;1.48;;;1.20;;
18820;SDS011;9539;59.332;18.034;2022-10-26T04:40:51;1.90;;;1.33;;
18820;SDS011;9539;59.332;18.034;2022-10-26T04:43:17;1.00;;;1.00;;
18820;SDS011;9539;59.332;18.034;2022-10-26T04:45:44;1.30;;;1.20;;
18820;SDS011;9539;59.332;18.034;2022-10-26T04:48:11;1.40;;;1.20;;
18820;SDS011;9539;59.332;18.034;2022-10-26T04:50:40;1.30;;;1.20;;
18820;SDS011;9539;59.332;18.034;2022-10-26T04:53:07;2.75;;;1.20;;
18820;SDS011;9539;59.332;18.034;2022-10-26T04:55:34;2.72;;;1.30;;
18820;SDS011;9539;59.332;18.034;2022-10-26T04:58:01;1.33;;;1.20;;
18820;SDS011;9539;59.332;18.034;2022-10-26T05:00:28;1.20;;;1.20;;
18820;SDS011;9539;59.332;18.034;2022-10-26T05:02:59;1.40;;;1.30;;
18820;SDS011;9539;59.332;18.034;2022-10-26T05:05:27;2.67;;;1.40;;
18820;SDS011;9539;59.332;18.034;2022-10-26T05:07:55;1.85;;;1.20;;
18820;SDS011;9539;59.332;18.034;2022-10-26T05:10:22;2.17;;;1.50;;
18820;SDS011;9539;59.332;18.034;2022-10-26T05:12:50;1.75;;;1.33;;
18820;SDS011;9539;59.332;18.034;2022-10-26T05:15:17;2.88;;;1.60;;
18820;SDS011;9539;59.332;18.034;2022-10-26T05:17:44;3.03;;;1.40;;
18820;SDS011;9539;59.332;18.034;2022-10-26T05:20:11;2.00;;;1.40;;
18820;SDS011;9539;59.332;18.034;2022-10-26T05:22:38;3.60;;;1.40;;
18820;SDS011;9539;59.332;18.034;2022-10-26T05:25:07;2.40;;;1.45;;
18820;SDS011;9539;59.332;18.034;2022-10-26T05:27:34;2.03;;;1.35;;
18820;SDS011;9539;59.332;18.034;2022-10-26T05:30:01;1.30;;;1.30;;
18820;SDS011;9539;59.332;18.034;2022-10-26T05:32:28;2.65;;;1.20;;
18820;SDS011;9539;59.332;18.034;2022-10-26T05:34:54;2.55;;;1.10;;
18820;SDS011;9539;59.332;18.034;2022-10-26T05:37:21;2.35;;;1.20;;
18820;SDS011;9539;59.332;18.034;2022-10-26T05:39:48;1.48;;;1.30;;
18820;SDS011;9539;59.332;18.034;2022-10-26T05:42:16;1.42;;;1.30;;
18820;SDS011;9539;59.332;18.034;2022-10-26T05:44:44;2.10;;;1.30;;
18820;SDS011;9539;59.332;18.034;2022-10-26T05:47:11;1.88;;;1.38;;
18820;SDS011;9539;59.332;18.034;2022-10-26T05:49:38;2.55;;;1.50;;
18820;SDS011;9539;59.332;18.034;2022-10-26T05:52:05;0.98;;;0.98;;
18820;SDS011;9539;59.332;18.034;2022-10-26T05:54:32;1.33;;;1.10;;
18820;SDS011;9539;59.332;18.034;2022-10-26T05:56:59;1.23;;;1.05;;
18820;SDS011;9539;59.332;18.034;2022-10-26T05:59:28;1.65;;;1.05;;
18820;SDS011;9539;59.332;18.034;2022-10-26T06:01:58;1.30;;;1.20;;
18820;SDS011;9539;59.332;18.034;2022-10-26T06:04:34;2.40;;;1.50;;
18820;SDS011;9539;59.332;18.034;2022-10-26T06:07:04;3.35;;;1.40;;
18820;SDS011;9539;59.332;18.034;2022-10-26T06:09:37;2.28;;;1.27;;
18820;SDS011;9539;59.332;18.034;2022-10-26T06:12:04;1.60;;;1.38;;
18820;SDS011;9539;59.332;18.034;2022-10-26T06:14:34;1.38;;;1.17;;
18820;SDS011;9539;59.332;18.034;2022-10-26T06:17:09;2.28;;;1.23;;
18820;SDS011;9539;59.332;18.034;2022-10-26T06:19:46;1.38;;;1.23;;
18820;SDS011;9539;59.332;18.034;2022-10-26T06:22:26;2.95;;;1.52;;
18820;SDS011;9539;59.332;18.034;2022-10-26T06:25:05;1.50;;;1.27;;
18820;SDS011;9539;59.332;18.034;2022-10-26T06:27:38;2.08;;;1.30;;
18820;SDS011;9539;59.332;18.034;2022-10-26T06:30:12;1.95;;;1.70;;
18820;SDS011;9539;59.332;18.034;2022-10-26T06:32:40;2.80;;;1.27;;
18820;SDS011;9539;59.332;18.034;2022-10-26T06:35:13;1.88;;;1.40;;
18820;SDS011;9539;59.332;18.034;2022-10-26T06:37:49;1.95;;;1.40;;
18820;SDS011;9539;59.332;18.034;2022-10-26T06:40:19;3.08;;;1.40;;
18820;SDS011;9539;59.332;18.034;2022-10-26T06:42:48;1.77;;;1.40;;
18820;SDS011;9539;59.332;18.034;2022-10-26T06:45:17;2.42;;;1.60;;
18820;SDS011;9539;59.332;18.034;2022-10-26T06:47:46;2.47;;;1.80;;
18820;SDS011;9539;59.332;18.034;2022-10-26T06:50:24;2.72;;;2.17;;
18820;SDS011;9539;59.332;18.034;2022-10-26T06:52:58;3.20;;;1.85;;
18820;SDS011;9539;59.332;18.034;2022-10-26T06:55:34;2.45;;;1.95;;
18820;SDS011;9539;59.332;18.034;2022-10-26T06:58:07;1.83;;;1.50;;
18820;SDS011;9539;59.332;18.034;2022-10-26T07:00:40;2.85;;;1.50;;
18820;SDS011;9539;59.332;18.034;2022-10-26T07:03:09;3.00;;;1.80;;
18820;SDS011;9539;59.332;18.034;2022-10-26T07:05:35;1.90;;;1.40;;
18820;SDS011;9539;59.332;18.034;2022-10-26T07:08:03;3.90;;;1.80;;
18820;SDS011;9539;59.332;18.034;2022-10-26T07:10:30;2.22;;;1.60;;
18820;SDS011;9539;59.332;18.034;2022-10-26T07:12:59;2.45;;;1.60;;
18820;SDS011;9539;59.332;18.034;2022-10-26T07:15:26;2.50;;;1.80;;
18820;SDS011;9539;59.332;18.034;2022-10-26T07:17:54;2.72;;;1.50;;
18820;SDS011;9539;59.332;18.034;2022-10-26T07:20:21;2.20;;;1.35;;
18820;SDS011;9539;59.332;18.034;2022-10-26T07:22:51;1.23;;;1.17;;
18820;SDS011;9539;59.332;18.034;2022-10-26T07:25:18;1.52;;;1.20;;
18820;SDS011;9539;59.332;18.034;2022-10-26T07:27:45;1.02;;;1.00;;
18820;SDS011;9539;59.332;18.034;2022-10-26T07:30:12;1.38;;;1.15;;
18820;SDS011;9539;59.332;18.034;2022-10-26T07:32:39;2.47;;;1.50;;
18820;SDS011;9539;59.332;18.034;2022-10-26T07:35:08;1.50;;;1.40;;
18820;SDS011;9539;59.332;18.034;2022-10-26T07:37:35;1.10;;;1.00;;
18820;SDS011;9539;59.332;18.034;2022-10-26T07:40:02;1.38;;;1.20;;
18820;SDS011;9539;59.332;18.034;2022-10-26T07:42:29;1.67;;;1.20;;
18820;SDS011;9539;59.332;18.034;2022-10-26T07:44:56;3.35;;;1.08;;
18820;SDS011;9539;59.332;18.034;2022-10-26T07:47:23;2.08;;;1.10;;
18820;SDS011;9539;59.332;18.034;2022-10-26T07:49:50;1.00;;;0.90;;
18820;SDS011;9539;59.332;18.034;2022-10-26T07:52:18;3.08;;;1.00;;
18820;SDS011;9539;59.332;18.034;2022-10-26T07:54:45;1.92;;;1.10;;
18820;SDS011;9539;59.332;18.034;2022-10-26T07:57:11;1.08;;;1.08;;
18820;SDS011;9539;59.332;18.034;2022-10-26T07:59:38;2.33;;;1.40;;
18820;SDS011;9539;59.332;18.034;2022-10-26T08:02:05;2.67;;;1.13;;
18820;SDS011;9539;59.332;18.034;2022-10-26T08:04:31;1.02;;;1.00;;
18820;SDS011;9539;59.332;18.034;2022-10-26T08:06:58;1.67;;;1.10;;
18820;SDS011;9539;59.332;18.034;2022-10-26T08:09:26;1.27;;;1.20;;
18820;SDS011;9539;59.332;18.034;2022-10-26T08:11:53;1.95;;;1.00;;
18820;SDS011;9539;59.332;18.034;2022-10-26T08:14:20;2.13;;;1.02;;
18820;SDS011;9539;59.332;18.034;2022-10-26T08:16:46;3.25;;;1.20;;
18820;SDS011;9539;59.332;18.034;2022-10-26T08:19:16;3.08;;;1.13;;
18820;SDS011;9539;59.332;18.034;2022-10-26T08:21:43;2.47;;;1.30;;
18820;SDS011;9539;59.332;18.034;2022-10-26T08:24:09;1.55;;;1.10;;
18820;SDS011;9539;59.332;18.034;2022-10-26T08:26:38;1.85;;;1.10;;
18820;SDS011;9539;59.332;18.034;2022-10-26T08:29:04;2.85;;;1.33;;
18820;SDS011;9539;59.332;18.034;2022-10-26T08:31:31;1.52;;;1.10;;
18820;SDS011;9539;59.332;18.034;2022-10-26T08:33:58;3.60;;;1.15;;
18820;SDS011;9539;59.332;18.034;2022-10-26T08:36:26;1.50;;;1.10;;
18820;SDS011;9539;59.332;18.034;2022-10-26T08:38:53;2.17;;;1.33;;
18820;SDS011;9539;59.332;18.034;2022-10-26T08:41:21;2.95;;;1.10;;
18820;SDS011;9539;59.332;18.034;2022-10-26T08:43:58;1.60;;;1.08;;
18820;SDS011;9539;59.332;18.034;2022-10-26T08:46:31;0.95;;;0.95;;
18820;SDS011;9539;59.332;18.034;2022-10-26T08:49:02;1.60;;;1.10;;
18820;SDS011;9539;59.332;18.034;2022-10-26T08:51:38;2.38;;;1.30;;
18820;SDS011;9539;59.332;18.034;2022-10-26T08:54:09;1.42;;;1.10;;
18820;SDS011;9539;59.332;18.034;2022-10-26T08:56:39;1.40;;;1.30;;
18820;SDS011;9539;59.332;18.034;2022-10-26T08:59:13;1.88;;;1.60;;
18820;SDS011;9539;59.332;18.034;2022-10-26T09:01:45;1.70;;;1.30;;
18820;SDS011;9539;59.332;18.034;2022-10-26T09:04:12;1.50;;;1.40;;
18820;SDS011;9539;59.332;18.034;2022-10-26T09:06:42;3.03;;;1.60;;
18820;SDS011;9539;59.332;18.034;2022-10-26T09:09:16;1.73;;;1.35;;
18820;SDS011;9539;59.332;18.034;2022-10-26T09:11:49;4.55;;;1.10;;
18820;SDS011;9539;59.332;18.034;2022-10-26T09:14:23;1.33;;;1.23;;
18820;SDS011;9539;59.332;18.034;2022-10-26T09:17:04;4.88;;;1.50;;
18820;SDS011;9539;59.332;18.034;2022-10-26T09:19:49;1.88;;;1.45;;
18820;SDS011;9539;59.332;18.034;2022-10-26T09:22:31;4.22;;;1.20;;
18820;SDS011;9539;59.332;18.034;2022-10-26T09:25:07;3.00;;;1.30;;
18820;SDS011;9539;59.332;18.034;2022-10-26T09:27:43;1.83;;;1.30;;
18820;SDS011;9539;59.332;18.034;2022-10-26T09:30:17;2.63;;;1.30;;
18820;SDS011;9539;59.332;18.034;2022-10-26T09:32:45;3.88;;;1.50;;
18820;SDS011;9539;59.332;18.034;2022-10-26T09:35:14;1.38;;;1.27;;
18820;SDS011;9539;59.332;18.034;2022-10-26T09:37:46;2.47;;;1.50;;
18820;SDS011;9539;59.332;18.034;2022-10-26T09:40:17;1.58;;;1.20;;
18820;SDS011;9539;59.332;18.034;2022-10-26T09:42:50;6.15;;;1.77;;
18820;SDS011;9539;59.332;18.034;2022-10-26T09:45:24;2.42;;;1.40;;
18820;SDS011;9539;59.332;18.034;2022-10-26T09:47:55;2.28;;;1.40;;
18820;SDS011;9539;59.332;18.034;2022-10-26T09:50:27;2.30;;;1.40;;
18820;SDS011;9539;59.332;18.034;2022-10-26T09:52:58;2.30;;;1.20;;
18820;SDS011;9539;59.332;18.034;2022-10-26T09:55:25;1.52;;;1.15;;
18820;SDS011;9539;59.332;18.034;2022-10-26T09:57:52;2.88;;;1.50;;
18820;SDS011;9539;59.332;18.034;2022-10-26T10:00:23;1.60;;;1.50;;
18820;SDS011;9539;59.332;18.034;2022-10-26T10:02:55;4.10;;;1.40;;
18820;SDS011;9539;59.332;18.034;2022-10-26T10:05:25;1.88;;;1.40;;
18820;SDS011;9539;59.332;18.034;2022-10-26T10:08:07;1.88;;;1.05;;
18820;SDS011;9539;59.332;18.034;2022-10-26T10:10:36;1.77;;;1.40;;
18820;SDS011;9539;59.332;18.034;2022-10-26T10:13:13;1.65;;;1.10;;
18820;SDS011;9539;59.332;18.034;2022-10-26T10:15:47;1.55;;;1.10;;
18820;SDS011;9539;59.332;18.034;2022-10-26T10:18:18;1.15;;;1.10;;
18820;SDS011;9539;59.332;18.034;2022-10-26T10:20:50;1.00;;;1.00;;
18820;SDS011;9539;59.332;18.034;2022-10-26T10:23:23;1.40;;;1.10;;
18820;SDS011;9539;59.332;18.034;2022-10-26T10:26:02;2.38;;;1.52;;
18820;SDS011;9539;59.332;18.034;2022-10-26T10:28:32;1.77;;;1.17;;
18820;SDS011;9539;59.332;18.034;2022-10-26T10:31:01;1.25;;;1.08;;
18820;SDS011;9539;59.332;18.034;2022-10-26T10:33:33;2.15;;;1.20;;
18820;SDS011;9539;59.332;18.034;2022-10-26T10:36:03;3.38;;;1.05;;
18820;SDS011;9539;59.332;18.034;2022-10-26T10:38:35;2.00;;;0.98;;
18820;SDS011;9539;59.332;18.034;2022-10-26T10:41:03;1.30;;;1.20;;
18820;SDS011;9539;59.332;18.034;2022-10-26T10:43:41;2.40;;;1.58;;
18820;SDS011;9539;59.332;18.034;2022-10-26T10:46:15;2.42;;;1.45;;
18820;SDS011;9539;59.332;18.034;2022-10-26T10:48:45;1.20;;;1.10;;
18820;SDS011;9539;59.332;18.034;2022-10-26T10:51:16;1.30;;;1.20;;
18820;SDS011;9539;59.332;18.034;2022-10-26T10:53:45;1.20;;;1.10;;
18820;SDS011;9539;59.332;18.034;2022-10-26T10:56:18;1.15;;;1.08;;
18820;SDS011;9539;59.332;18.034;2022-10-26T10:59:06;2.85;;;0.90;;
18820;SDS011;9539;59.332;18.034;2022-10-26T11:01:56;1.55;;;1.00;;
18820;SDS011;9539;59.332;18.034;2022-10-26T11:04:44;1.13;;;1.00;;
18820;SDS011;9539;59.332;18.034;2022-10-26T11:07:26;1.40;;;1.00;;
18820;SDS011;9539;59.332;18.034;2022-10-26T11:09:55;1.95;;;1.02;;
18820;SDS011;9539;59.332;18.034;2022-10-26T11:12:29;1.02;;;0.95;;
18820;SDS011;9539;59.332;18.034;2022-10-26T11:14:59;1.30;;;1.20;;
18820;SDS011;9539;59.332;18.034;2022-10-26T11:17:33;1.33;;;1.10;;
18820;SDS011;9539;59.332;18.034;2022-10-26T11:20:08;1.33;;;1.00;;
18820;SDS011;9539;59.332;18.034;2022-10-26T11:22:41;1.73;;;1.10;;
18820;SDS011;9539;59.332;18.034;2022-10-26T11:25:26;3.60;;;1.20;;
18820;SDS011;9539;59.332;18.034;2022-10-26T11:27:59;2.55;;;1.33;;
18820;SDS011;9539;59.332;18.034;2022-10-26T11:30:30;3.58;;;1.20;;
18820;SDS011;9539;59.332;18.034;2022-10-26T11:33:03;2.85;;;1.00;;
18820;SDS011;9539;59.332;18.034;2022-10-26T11:35:39;1.77;;;1.17;;
18820;SDS011;9539;59.332;18.034;2022-10-26T11:38:11;2.42;;;1.20;;
18820;SDS011;9539;59.332;18.034;2022-10-26T11:40:43;1.15;;;1.13;;
18820;SDS011;9539;59.332;18.034;2022-10-26T11:43:20;5.25;;;1.65;;
18820;SDS011;9539;59.332;18.034;2022-10-26T11:45:56;2.63;;;1.58;;
18820;SDS011;9539;59.332;18.034;2022-10-26T11:48:32;3.70;;;2.00;;
18820;SDS011;9539;59.332;18.034;2022-10-26T11:51:02;3.15;;;1.95;;
18820;SDS011;9539;59.332;18.034;2022-10-26T11:53:31;3.28;;;1.90;;
18820;SDS011;9539;59.332;18.034;2022-10-26T11:56:04;4.43;;;2.00;;
18820;SDS011;9539;59.332;18.034;2022-10-26T11:58:39;3.67;;;2.75;;
18820;SDS011;9539;59.332;18.034;2022-10-26T12:01:07;6.10;;;2.58;;
18820;SDS011;9539;59.332;18.034;2022-10-26T12:03:42;3.17;;;2.50;;
18820;SDS011;9539;59.332;18.034;2022-10-26T12:06:12;2.50;;;2.17;;
18820;SDS011;9539;59.332;18.034;2022-10-26T12:08:45;3.08;;;2.42;;
18820;SDS011;9539;59.332;18.034;2022-10-26T12:11:18;3.00;;;2.40;;
18820;SDS011;9539;59.332;18.034;2022-10-26T12:13:58;4.82;;;2.72;;
18820;SDS011;9539;59.332;18.034;2022-10-26T12:16:34;3.22;;;2.58;;
18820;SDS011;9539;59.332;18.034;2022-10-26T12:19:13;3.25;;;2.20;;
18820;SDS011;9539;59.332;18.034;2022-10-26T12:21:44;3.40;;;2.28;;
18820;SDS011;9539;59.332;18.034;2022-10-26T12:27:03;5.13;;;2.50;;
18820;SDS011;9539;59.332;18.034;2022-10-26T12:29:32;3.60;;;2.17;;
18820;SDS011;9539;59.332;18.034;2022-10-26T12:32:02;2.33;;;2.13;;
18820;SDS011;9539;59.332;18.034;2022-10-26T12:35:02;2.90;;;2.30;;
18820;SDS011;9539;59.332;18.034;2022-10-26T12:37:49;2.00;;;1.80;;
18820;SDS011;9539;59.332;18.034;2022-10-26T12:40:38;2.55;;;2.30;;
18820;SDS011;9539;59.332;18.034;2022-10-26T12:52:24;2.40;;;2.20;;
18820;SDS011;9539;59.332;18.034;2022-10-26T12:58:24;3.47;;;2.35;;
18820;SDS011;9539;59.332;18.034;2022-10-26T13:01:21;2.30;;;2.10;;
18820;SDS011;9539;59.332;18.034;2022-10-26T13:04:00;2.65;;;2.40;;
18820;SDS011;9539;59.332;18.034;2022-10-26T13:06:40;4.30;;;2.30;;
18820;SDS011;9539;59.332;18.034;2022-10-26T13:09:20;4.00;;;1.90;;
18820;SDS011;9539;59.332;18.034;2022-10-26T13:11:51;3.30;;;1.52;;
18820;SDS011;9539;59.332;18.034;2022-10-26T13:14:20;3.45;;;1.80;;
18820;SDS011;9539;59.332;18.034;2022-10-26T13:16:49;2.58;;;1.52;;
18820;SDS011;9539;59.332;18.034;2022-10-26T13:19:23;2.08;;;1.42;;
18820;SDS011;9539;59.332;18.034;2022-10-26T13:21:51;2.35;;;1.50;;
18820;SDS011;9539;59.332;18.034;2022-10-26T13:24:21;3.10;;;1.30;;
18820;SDS011;9539;59.332;18.034;2022-10-26T13:30:16;2.40;;;1.33;;
18820;SDS011;9539;59.332;18.034;2022-10-26T13:32:48;2.45;;;2.10;;
18820;SDS011;9539;59.332;18.034;2022-10-26T13:35:17;2.58;;;1.95;;
18820;SDS011;9539;59.332;18.034;2022-10-26T13:37:47;2.03;;;1.50;;
18820;SDS011;9539;59.332;18.034;2022-10-26T13:40:18;4.22;;;1.50;;
18820;SDS011;9539;59.332;18.034;2022-10-26T13:42:47;3.25;;;1.58;;
18820;SDS011;9539;59.332;18.034;2022-10-26T13:45:18;2.05;;;1.35;;
18820;SDS011;9539;59.332;18.034;2022-10-26T13:47:50;3.40;;;1.60;;
18820;SDS011;9539;59.332;18.034;2022-10-26T13:50:22;2.58;;;1.40;;
18820;SDS011;9539;59.332;18.034;2022-10-26T13:52:52;2.30;;;1.55;;
18820;SDS011;9539;59.332;18.034;2022-10-26T13:55:25;3.42;;;1.55;;
18820;SDS011;9539;59.332;18.034;2022-10-26T13:57:59;4.80;;;1.30;;
18820;SDS011;9539;59.332;18.034;2022-10-26T14:00:36;3.08;;;1.90;;
18820;SDS011;9539;59.332;18.034;2022-10-26T14:03:12;2.10;;;1.70;;
18820;SDS011;9539;59.332;18.034;2022-10-26T14:05:40;3.28;;;1.58;;
18820;SDS011;9539;59.332;18.034;2022-10-26T14:08:10;3.92;;;1.83;;
18820;SDS011;9539;59.332;18.034;2022-10-26T14:10:46;1.60;;;1.50;;
18820;SDS011;9539;59.332;18.034;2022-10-26T14:13:20;3.40;;;1.75;;
18820;SDS011;9539;59.332;18.034;2022-10-26T14:15:49;2.20;;;2.00;;
18820;SDS011;9539;59.332;18.034;2022-10-26T14:18:17;4.03;;;2.35;;
18820;SDS011;9539;59.332;18.034;2022-10-26T14:20:46;2.92;;;2.30;;
18820;SDS011;9539;59.332;18.034;2022-10-26T14:23:25;3.55;;;1.70;;
18820;SDS011;9539;59.332;18.034;2022-10-26T14:25:54;2.95;;;2.13;;
18820;SDS011;9539;59.332;18.034;2022-10-26T14:28:22;3.72;;;2.20;;
18820;SDS011;9539;59.332;18.034;2022-10-26T14:30:50;2.90;;;1.95;;
18820;SDS011;9539;59.332;18.034;2022-10-26T14:33:17;3.70;;;2.30;;
18820;SDS011;9539;59.332;18.034;2022-10-26T14:35:45;4.93;;;1.90;;
18820;SDS011;9539;59.332;18.034;2022-10-26T14:38:14;4.00;;;2.28;;
18820;SDS011;9539;59.332;18.034;2022-10-26T14:40:46;5.22;;;2.40;;
18820;SDS011;9539;59.332;18.034;2022-10-26T14:43:18;3.15;;;2.17;;
18820;SDS011;9539;59.332;18.034;2022-10-26T14:45:48;2.80;;;2.45;;
18820;SDS011;9539;59.332;18.034;2022-10-26T14:48:21;4.60;;;2.30;;
18820;SDS011;9539;59.332;18.034;2022-10-26T14:50:59;5.53;;;2.80;;
18820;SDS011;9539;59.332;18.034;2022-10-26T14:53:29;5.32;;;3.08;;
18820;SDS011;9539;59.332;18.034;2022-10-26T14:56:01;4.00;;;2.90;;
18820;SDS011;9539;59.332;18.034;2022-10-26T14:58:31;6.97;;;3.78;;
18820;SDS011;9539;59.332;18.034;2022-10-26T15:04:00;4.22;;;3.17;;
18820;SDS011;9539;59.332;18.034;2022-10-26T15:09:27;5.15;;;3.17;;
18820;SDS011;9539;59.332;18.034;2022-10-26T15:12:03;4.03;;;3.30;;
18820;SDS011;9539;59.332;18.034;2022-10-26T15:14:32;3.55;;;3.13;;
18820;SDS011;9539;59.332;18.034;2022-10-26T15:16:59;6.15;;;3.65;;
18820;SDS011;9539;59.332;18.034;2022-10-26T15:19:26;13.48;;;5.07;;
18820;SDS011;9539;59.332;18.034;2022-10-26T15:21:53;6.13;;;4.15;;
18820;SDS011;9539;59.332;18.034;2022-10-26T15:27:11;4.72;;;4.22;;
18820;SDS011;9539;59.332;18.034;2022-10-26T15:29:42;5.50;;;3.72;;
18820;SDS011;9539;59.332;18.034;2022-10-26T15:32:18;6.47;;;3.50;;
18820;SDS011;9539;59.332;18.034;2022-10-26T15:37:46;4.55;;;3.22;;
18820;SDS011;9539;59.332;18.034;2022-10-26T15:40:13;6.18;;;3.50;;
18820;SDS011;9539;59.332;18.034;2022-10-26T15:42:41;3.65;;;2.95;;
18820;SDS011;9539;59.332;18.034;2022-10-26T15:45:14;4.65;;;3.80;;
18820;SDS011;9539;59.332;18.034;2022-10-26T15:47:43;6.45;;;3.45;;
18820;SDS011;9539;59.332;18.034;2022-10-26T15:50:11;3.40;;;3.10;;